Time;durP1;ratioP1;P1;durP2;ratioP2;P2;SDS_P1;SDS_P2;PMS_P1;PMS_P2;Temp;Humidity;BMP_temperature;BMP_pressure;BME280_temperature;BME280_humidity;BME280_pressure;Samples;Min_cycle;Max_cycle;Signal;HPM_P1;HPM_P2
2023/03/28 00:01:02;;;;;;;1.95;1.30;;;;;;;-0.03;100.00;98313.03;4484958;31;20096;-66
2023/03/28 00:03:34;;;;;;;3.75;1.42;;;;;;;-0.07;100.00;98306.38;4485069;31;20076;-66
2023/03/28 00:06:04;;;;;;;2.83;1.77;;;;;;;-0.08;99.76;98309.03;4485017;31;20569;-66
2023/03/28 00:08:32;;;;;;;1.52;1.15;;;;;;;-0.10;100.00;98306.53;4484760;31;20081;-66
2023/03/28 00:11:14;;;;;;;5.25;1.27;;;;;;;-0.11;100.00;98320.31;4484547;31;20159;-66
2023/03/28 00:13:41;;;;;;;3.40;1.50;;;;;;;-0.12;100.00;98320.41;4484587;31;20160;-66
2023/03/28 00:16:11;;;;;;;2.42;1.12;;;;;;;-0.15;100.00;98320.56;4484608;31;20246;-66
2023/03/28 00:18:41;;;;;;;1.92;1.10;;;;;;;-0.06;98.50;98315.78;4484265;32;20080;-66
2023/03/28 00:21:28;;;;;;;1.85;1.17;;;;;;;-0.05;99.28;98326.88;4484477;31;20156;-66
2023/03/28 00:24:00;;;;;;;1.75;0.95;;;;;;;-0.11;99.72;98329.78;4484517;31;20075;-66
2023/03/28 00:26:31;;;;;;;2.78;1.45;;;;;;;-0.12;99.22;98336.69;4484591;32;20147;-66
2023/03/28 00:29:00;;;;;;;2.40;1.35;;;;;;;-0.05;97.82;98339.75;4484443;31;20445;-66
2023/03/28 00:31:28;;;;;;;2.62;1.20;;;;;;;-0.07;99.16;98326.16;4484532;31;20149;-66
2023/03/28 00:33:56;;;;;;;2.92;1.55;;;;;;;-0.12;98.81;98328.12;4484848;31;20152;-66
2023/03/28 00:36:31;;;;;;;3.55;1.48;;;;;;;-0.14;99.16;98330.78;4484373;31;20101;-66
2023/03/28 00:39:00;;;;;;;2.42;1.58;;;;;;;-0.10;98.02;98341.75;4484496;31;20104;-66
2023/03/28 00:41:31;;;;;;;2.80;1.55;;;;;;;-0.11;99.39;98342.66;4484188;31;20125;-66
2023/03/28 00:43:59;;;;;;;3.30;1.58;;;;;;;-0.11;99.29;98351.22;4484397;31;20141;-66
2023/03/28 00:46:34;;;;;;;4.35;1.40;;;;;;;-0.09;99.51;98345.97;4486042;31;20538;-66
2023/03/28 00:49:05;;;;;;;1.67;1.33;;;;;;;-0.14;100.00;98353.94;4485288;32;20495;-66
2023/03/28 00:51:36;;;;;;;3.60;1.35;;;;;;;-0.17;100.00;98359.25;4484978;32;20521;-66
2023/03/28 00:54:06;;;;;;;3.00;1.37;;;;;;;-0.17;100.00;98361.00;4486132;32;20092;-66
2023/03/28 00:56:36;;;;;;;1.27;0.85;;;;;;;-0.27;100.00;98376.94;4485027;32;20096;-66
2023/03/28 00:59:07;;;;;;;1.92;1.15;;;;;;;-0.29;100.00;98381.31;4485909;31;20105;-66
2023/03/28 01:01:35;;;;;;;2.90;1.52;;;;;;;-0.28;100.00;98382.97;4486014;32;20643;-66
2023/03/28 01:04:05;;;;;;;1.35;1.12;;;;;;;-0.31;100.00;98388.28;4486233;32;20104;-66
2023/03/28 01:06:36;;;;;;;6.32;1.65;;;;;;;-0.40;100.00;98387.00;4486083;31;20458;-66
2023/03/28 01:09:07;;;;;;;1.73;1.35;;;;;;;-0.46;100.00;98386.50;4486280;31;20085;-66
2023/03/28 01:11:36;;;;;;;2.45;1.55;;;;;;;-0.47;100.00;98392.53;4486171;32;20096;-66
2023/03/28 01:14:06;;;;;;;1.52;0.90;;;;;;;-0.47;100.00;98393.41;4484883;32;20235;-66
2023/03/28 01:16:40;;;;;;;4.07;2.03;;;;;;;-0.52;100.00;98391.94;4484798;32;20108;-66
2023/03/28 01:19:37;;;;;;;1.40;1.00;;;;;;;-0.58;100.00;98399.06;4485850;31;20161;-66
2023/03/28 01:22:58;;;;;;;5.25;1.98;;;;;;;-0.61;100.00;98399.19;4484564;32;20162;-66
2023/03/28 01:25:34;;;;;;;1.37;0.80;;;;;;;-0.66;100.00;98406.31;4436567;32;20120;-65
2023/03/28 01:28:15;;;;;;;3.83;1.40;;;;;;;-0.64;100.00;98401.94;4424159;32;20743;-65
2023/03/28 01:30:55;;;;;;;2.58;1.12;;;;;;;-0.63;100.00;98403.59;4436546;32;20393;-66
2023/03/28 01:33:41;;;;;;;2.47;1.33;;;;;;;-0.65;100.00;98400.28;4436811;32;20510;-66
2023/03/28 01:36:30;;;;;;;3.10;1.37;;;;;;;-0.67;100.00;98407.22;4436606;32;20109;-66
2023/03/28 01:39:39;;;;;;;5.68;2.00;;;;;;;-0.74;100.00;98411.84;4436852;32;20440;-66
2023/03/28 01:42:31;;;;;;;2.85;1.20;;;;;;;-0.79;100.00;98418.97;4436864;32;20139;-66
2023/03/28 01:45:16;;;;;;;2.85;1.75;;;;;;;-0.77;100.00;98434.31;4424153;32;20584;-66
2023/03/28 01:48:09;;;;;;;2.53;1.48;;;;;;;-0.74;100.00;98423.87;4436498;32;20652;-66
2023/03/28 01:50:47;;;;;;;5.45;2.35;;;;;;;-0.66;100.00;98433.81;4390693;32;20098;-66
2023/03/28 01:53:23;;;;;;;2.60;1.50;;;;;;;-0.74;100.00;98450.44;4378192;32;20546;-66
2023/03/28 01:56:02;;;;;;;2.22;1.75;;;;;;;-0.77;100.00;98447.19;4377748;32;20114;-66
2023/03/28 01:59:15;;;;;;;2.67;1.60;;;;;;;-0.67;100.00;98455.28;4381686;32;20118;-66
2023/03/28 02:02:00;;;;;;;3.30;1.80;;;;;;;-0.63;100.00;98442.19;4385830;32;20177;-66
2023/03/28 02:04:29;;;;;;;3.50;1.62;;;;;;;-0.67;100.00;98445.81;4390683;32;20153;-66
2023/03/28 02:06:57;;;;;;;3.45;1.30;;;;;;;-0.67;100.00;98456.09;4390777;32;20129;-66
2023/03/28 02:09:26;;;;;;;3.30;1.87;;;;;;;-0.71;100.00;98462.31;4390924;32;20188;-66
2023/03/28 02:12:05;;;;;;;3.90;1.87;;;;;;;-0.75;100.00;98463.38;4390713;32;20110;-66
2023/03/28 02:14:37;;;;;;;4.70;2.08;;;;;;;-0.69;100.00;98472.53;4390799;32;20405;-66
2023/03/28 02:17:14;;;;;;;2.47;1.70;;;;;;;-0.72;100.00;98473.50;4390474;32;20586;-66
2023/03/28 02:19:46;;;;;;;2.17;1.35;;;;;;;-0.73;100.00;98479.56;4390822;32;20119;-66
2023/03/28 02:22:38;;;;;;;2.22;1.52;;;;;;;-0.74;100.00;98475.34;4390533;32;20121;-66
2023/03/28 02:25:06;;;;;;;3.20;1.52;;;;;;;-0.75;100.00;98476.22;4390563;32;20185;-66
2023/03/28 02:27:35;;;;;;;3.65;2.20;;;;;;;-0.78;100.00;98476.37;4408839;32;20114;-66
2023/03/28 02:30:07;;;;;;;10.43;2.10;;;;;;;-0.73;100.00;98480.41;4424084;32;20175;-66
2023/03/28 02:32:34;;;;;;;3.97;1.92;;;;;;;-0.73;100.00;98492.41;4436088;32;20165;-66
2023/03/28 02:35:04;;;;;;;3.40;1.85;;;;;;;-0.79;100.00;98490.97;4436230;32;20195;-66
2023/03/28 02:37:45;;;;;;;7.35;2.17;;;;;;;-0.81;100.00;98497.91;4441546;32;20120;-66
2023/03/28 02:40:29;;;;;;;3.90;2.22;;;;;;;-0.83;100.00;98493.75;4469785;32;20088;-66
2023/03/28 02:43:26;;;;;;;4.65;1.87;;;;;;;-0.79;100.00;98510.72;4469658;32;20110;-66
2023/03/28 02:46:05;;;;;;;6.03;2.10;;;;;;;-0.84;100.00;98507.53;4420893;32;20560;-66
2023/03/28 02:48:59;;;;;;;5.75;2.40;;;;;;;-0.85;100.00;98513.56;4420894;32;20094;-66
2023/03/28 02:51:45;;;;;;;4.53;1.73;;;;;;;-0.87;100.00;98523.94;4420820;32;20447;-66
2023/03/28 02:54:35;;;;;;;6.25;2.00;;;;;;;-0.87;100.00;98533.38;4420770;32;20470;-66
2023/03/28 02:57:10;;;;;;;4.30;2.17;;;;;;;-0.87;100.00;98528.25;4420780;32;20533;-66
2023/03/28 02:59:42;;;;;;;5.97;2.30;;;;;;;-0.87;100.00;98530.81;4408258;32;20128;-66
2023/03/28 03:02:10;;;;;;;5.57;2.22;;;;;;;-0.92;100.00;98536.19;4420548;32;20201;-67
2023/03/28 03:04:37;;;;;;;2.65;1.67;;;;;;;-0.89;100.00;98538.59;4408213;32;20094;-67
2023/03/28 03:07:07;;;;;;;7.45;2.03;;;;;;;-0.97;100.00;98541.53;4420180;32;20139;-66
2023/03/28 03:09:35;;;;;;;4.50;2.62;;;;;;;-0.93;100.00;98552.50;4420532;32;20320;-67
2023/03/28 03:12:03;;;;;;;5.50;2.60;;;;;;;-0.97;100.00;98558.69;4430957;32;20109;-67
2023/03/28 03:14:31;;;;;;;4.15;2.40;;;;;;;-0.96;100.00;98562.94;4436005;32;20514;-67
2023/03/28 03:17:07;;;;;;;4.62;3.00;;;;;;;-0.97;100.00;98558.69;4436032;32;20216;-67
2023/03/28 03:19:35;;;;;;;10.27;2.22;;;;;;;-0.98;100.00;98557.84;4436021;32;20109;-67
2023/03/28 03:22:03;;;;;;;3.80;2.17;;;;;;;-1.01;100.00;98563.13;4454163;32;20108;-67
2023/03/28 03:24:33;;;;;;;6.68;2.58;;;;;;;-1.05;100.00;98571.06;4485211;31;20092;-67
2023/03/28 03:27:01;;;;;;;5.45;2.22;;;;;;;-1.04;100.00;98562.44;4484978;31;20156;-67
2023/03/28 03:29:29;;;;;;;6.62;3.10;;;;;;;-1.10;100.00;98571.25;4485059;31;20138;-67
2023/03/28 03:32:09;;;;;;;4.15;2.70;;;;;;;-1.11;100.00;98567.00;4485304;31;20100;-67
2023/03/28 03:34:40;;;;;;;4.72;2.45;;;;;;;-1.14;100.00;98575.69;4485370;32;20138;-67
2023/03/28 03:37:08;;;;;;;4.30;2.62;;;;;;;-1.11;100.00;98577.31;4484878;31;20565;-67
2023/03/28 03:39:35;;;;;;;5.18;2.50;;;;;;;-1.18;100.00;98579.31;4485030;31;20096;-67
2023/03/28 03:42:03;;;;;;;6.37;2.85;;;;;;;-1.12;100.00;98585.91;4485113;31;20138;-67
2023/03/28 03:44:31;;;;;;;6.57;2.83;;;;;;;-1.18;100.00;98579.31;4485149;31;20088;-67
2023/03/28 03:46:59;;;;;;;8.20;2.85;;;;;;;-1.18;100.00;98593.88;4485024;31;20096;-67
2023/03/28 03:49:27;;;;;;;5.80;2.58;;;;;;;-1.20;100.00;98600.84;4485101;31;20100;-67
2023/03/28 03:51:55;;;;;;;4.47;2.67;;;;;;;-1.20;100.00;98593.13;4485042;31;20438;-67
2023/03/28 03:54:23;;;;;;;6.03;2.47;;;;;;;-1.25;100.00;98604.44;4485094;32;20149;-67
2023/03/28 03:56:51;;;;;;;5.85;2.53;;;;;;;-1.29;100.00;98605.50;4484935;32;20096;-67
2023/03/28 03:59:19;;;;;;;4.95;3.35;;;;;;;-1.29;100.00;98609.78;4484730;31;20088;-67
2023/03/28 04:01:47;;;;;;;8.45;2.62;;;;;;;-1.29;100.00;98615.78;4485118;32;20080;-67
2023/03/28 04:04:15;;;;;;;6.70;3.08;;;;;;;-1.27;100.00;98620.84;4484877;31;20104;-67
2023/03/28 04:06:46;;;;;;;5.18;2.50;;;;;;;-1.33;100.00;98621.94;4484885;31;20088;-67
2023/03/28 04:09:14;;;;;;;3.85;2.72;;;;;;;-1.31;100.00;98622.69;4484644;31;20161;-67
2023/03/28 04:11:43;;;;;;;4.07;2.55;;;;;;;-1.33;100.00;98626.22;4484975;31;20156;-67
2023/03/28 04:14:10;;;;;;;7.85;3.10;;;;;;;-1.30;100.00;98624.38;4484392;31;20163;-66
2023/03/28 04:16:37;;;;;;;7.05;3.03;;;;;;;-1.33;100.00;98637.37;4481328;32;20169;-67
2023/03/28 04:19:09;;;;;;;7.72;2.65;;;;;;;-1.35;100.00;98636.56;4470800;32;20136;-67
2023/03/28 04:21:41;;;;;;;4.75;2.47;;;;;;;-1.32;100.00;98627.91;4480667;32;20096;-67
2023/03/28 04:24:14;;;;;;;3.65;2.12;;;;;;;-1.30;100.00;98639.78;4468775;32;20088;-67
2023/03/28 04:26:42;;;;;;;6.00;2.40;;;;;;;-1.32;100.00;98636.47;4484746;32;20068;-67
2023/03/28 04:29:11;;;;;;;7.25;2.95;;;;;;;-1.22;100.00;98646.34;4477809;31;20456;-66
2023/03/28 04:31:38;;;;;;;4.10;2.12;;;;;;;-1.18;100.00;98645.28;4473040;32;20432;-67
2023/03/28 04:34:09;;;;;;;6.05;2.03;;;;;;;-1.20;100.00;98655.66;4476609;32;20100;-66
2023/03/28 04:36:39;;;;;;;4.30;2.55;;;;;;;-1.18;100.00;98656.44;4484005;31;20108;-67
2023/03/28 04:39:07;;;;;;;6.80;2.78;;;;;;;-1.17;100.00;98654.69;4471050;32;20124;-66
2023/03/28 04:41:36;;;;;;;5.75;2.70;;;;;;;-1.19;100.00;98659.91;4483363;31;20108;-67
2023/03/28 04:44:05;;;;;;;6.18;2.87;;;;;;;-1.17;100.00;98665.78;4483932;31;20175;-66
2023/03/28 04:46:33;;;;;;;4.57;2.72;;;;;;;-1.21;100.00;98654.00;4473005;32;20453;-67
2023/03/28 04:49:01;;;;;;;4.53;2.78;;;;;;;-1.08;100.00;98669.72;4481571;32;20122;-67
2023/03/28 04:51:29;;;;;;;4.18;2.28;;;;;;;-1.08;100.00;98672.28;4479223;32;20105;-67
2023/03/28 04:53:56;;;;;;;4.53;2.83;;;;;;;-1.06;100.00;98673.03;4468780;32;20564;-67
2023/03/28 04:56:26;;;;;;;2.87;1.70;;;;;;;-1.00;100.00;98682.22;4483981;31;20153;-67
2023/03/28 04:58:53;;;;;;;4.62;2.62;;;;;;;-0.98;100.00;98681.28;4483894;31;20163;-67
2023/03/28 05:01:26;;;;;;;7.30;3.35;;;;;;;-0.93;100.00;98687.03;4476569;32;20093;-67
2023/03/28 05:03:55;;;;;;;7.78;2.67;;;;;;;-0.93;100.00;98686.22;4481916;31;20108;-66
2023/03/28 05:06:24;;;;;;;5.37;2.67;;;;;;;-0.88;100.00;98686.00;4481839;32;20576;-67
2023/03/28 05:08:52;;;;;;;5.03;2.65;;;;;;;-0.83;100.00;98695.19;4482592;31;20161;-67
2023/03/28 05:11:23;;;;;;;4.80;2.33;;;;;;;-0.79;100.00;98690.75;4477009;32;81990;-67
2023/03/28 05:13:50;;;;;;;5.03;2.75;;;;;;;-0.75;100.00;98697.44;4474813;32;20100;-67
2023/03/28 05:16:18;;;;;;;4.20;2.15;;;;;;;-0.75;100.00;98698.25;4478876;32;20428;-67
2023/03/28 05:18:47;;;;;;;3.10;1.90;;;;;;;-0.68;100.00;98693.69;4482995;32;20108;-67
2023/03/28 05:21:15;;;;;;;4.90;2.33;;;;;;;-0.61;100.00;98709.69;4481242;31;20093;-67
2023/03/28 05:23:43;;;;;;;4.22;2.55;;;;;;;-0.57;100.00;98706.06;4482698;32;20727;-67
2023/03/28 05:26:18;;;;;;;3.75;2.15;;;;;;;-0.55;100.00;98710.22;4482948;31;20103;-67
2023/03/28 05:28:45;;;;;;;4.87;2.45;;;;;;;-0.54;100.00;98717.03;4482401;31;20100;-67
2023/03/28 05:31:15;;;;;;;6.00;2.78;;;;;;;-0.48;100.00;98722.84;4481001;31;20175;-67
2023/03/28 05:33:47;;;;;;;;;;;;;;;-0.40;100.00;98721.56;4485959;31;20115;-67
2023/03/28 05:36:20;;;;;;;5.97;3.42;;;;;;;-0.33;100.00;98729.00;4482837;31;20298;-70
2023/03/28 05:38:48;;;;;;;4.87;2.72;;;;;;;-0.30;100.00;98729.72;4482789;31;20128;-70
2023/03/28 05:41:20;;;;;;;6.95;2.72;;;;;;;-0.25;100.00;98729.50;4475720;31;20076;-70
2023/03/28 05:43:48;;;;;;;4.43;2.83;;;;;;;-0.25;100.00;98724.38;4473505;32;20165;-69
2023/03/28 05:46:18;;;;;;;5.30;2.70;;;;;;;-0.13;100.00;98741.81;4480750;32;20112;-69
2023/03/28 05:48:47;;;;;;;4.40;2.55;;;;;;;-0.07;100.00;98735.56;4482970;32;20174;-69
2023/03/28 05:51:18;;;;;;;4.65;2.83;;;;;;;-0.04;100.00;98735.41;4484373;31;20106;-69
2023/03/28 05:53:46;;;;;;;6.30;3.58;;;;;;;-0.01;100.00;98735.28;4474965;31;20091;-70
2023/03/28 05:56:13;;;;;;;4.75;2.08;;;;;;;0.10;100.00;98737.34;4483545;31;20151;-70
2023/03/28 05:58:40;;;;;;;3.30;2.22;;;;;;;0.15;100.00;98735.37;4478312;32;20802;-70
2023/03/28 06:01:08;;;;;;;6.30;3.47;;;;;;;0.20;100.00;98748.88;4482566;32;20089;-69
2023/03/28 06:03:38;;;;;;;7.70;3.35;;;;;;;0.26;100.00;98746.03;4483160;32;20145;-70
2023/03/28 06:06:07;;;;;;;9.27;3.58;;;;;;;0.34;100.00;98755.97;4484240;32;20141;-70
2023/03/28 06:08:36;;;;;;;4.95;2.70;;;;;;;0.40;100.00;98765.97;4467197;31;20781;-70
2023/03/28 06:11:04;;;;;;;6.93;3.83;;;;;;;0.44;100.00;98759.78;4473424;31;20200;-70
2023/03/28 06:13:32;;;;;;;4.95;2.87;;;;;;;0.56;100.00;98753.19;4470439;31;20458;-70
2023/03/28 06:15:59;;;;;;;6.57;2.62;;;;;;;0.65;100.00;98775.94;4471340;31;20150;-69
2023/03/28 06:18:27;;;;;;;7.50;2.87;;;;;;;0.67;100.00;98773.28;4472657;31;20105;-69
2023/03/28 06:20:55;;;;;;;5.85;3.12;;;;;;;0.68;100.00;98770.62;4467360;31;20200;-67
2023/03/28 06:23:23;;;;;;;4.15;2.55;;;;;;;0.74;100.00;98790.09;4471012;31;20453;-67
2023/03/28 06:25:51;;;;;;;6.57;3.10;;;;;;;0.77;100.00;98789.97;4471363;31;20121;-69
2023/03/28 06:28:18;;;;;;;4.28;2.60;;;;;;;0.86;100.00;98794.69;4470468;31;20120;-67
2023/03/28 06:30:52;;;;;;;3.87;2.70;;;;;;;0.93;100.00;98809.88;4471677;31;20135;-67
2023/03/28 06:33:20;;;;;;;3.95;2.22;;;;;;;1.05;100.00;98806.69;4466008;32;21833;-66
2023/03/28 06:35:47;;;;;;;5.47;2.50;;;;;;;1.16;100.00;98800.97;4470929;31;20093;-65
2023/03/28 06:38:14;;;;;;;4.05;2.37;;;;;;;1.34;100.00;98805.19;4471724;31;20825;-67
2023/03/28 06:40:47;;;;;;;4.55;2.60;;;;;;;1.37;100.00;98809.38;4472071;31;20134;-66
2023/03/28 06:43:14;;;;;;;6.20;2.80;;;;;;;1.35;100.00;98808.62;4468790;31;20157;-66
2023/03/28 06:45:41;;;;;;;6.45;2.90;;;;;;;1.35;100.00;98812.03;4466553;32;20170;-66
2023/03/28 06:48:09;;;;;;;4.07;2.25;;;;;;;1.37;100.00;98819.69;4470279;31;20127;-65
2023/03/28 06:50:38;;;;;;;4.93;2.40;;;;;;;1.54;100.00;98816.25;4474342;31;20442;-64
2023/03/28 06:53:06;;;;;;;6.40;2.87;;;;;;;1.67;100.00;98829.38;4469133;31;20101;-66
2023/03/28 06:55:35;;;;;;;4.50;2.30;;;;;;;1.72;100.00;98835.13;4474253;32;20104;-66
2023/03/28 06:58:02;;;;;;;3.83;2.67;;;;;;;1.65;100.00;98829.47;4470322;31;20473;-65
2023/03/28 07:00:30;;;;;;;4.70;2.67;;;;;;;1.72;100.00;98835.13;4470536;31;20135;-67
2023/03/28 07:02:59;;;;;;;5.05;2.20;;;;;;;2.10;100.00;98827.94;4468808;31;20142;-67
2023/03/28 07:05:27;;;;;;;4.28;2.35;;;;;;;2.16;100.00;98834.53;4470170;32;20587;-68
2023/03/28 07:07:55;;;;;;;2.53;1.83;;;;;;;2.17;100.00;98831.03;4472052;31;20104;-66
2023/03/28 07:10:23;;;;;;;3.10;1.90;;;;;;;2.42;100.00;98827.09;4473923;31;20119;-67
2023/03/28 07:12:50;;;;;;;3.72;2.22;;;;;;;2.51;100.00;98833.53;4473738;31;20441;-66
2023/03/28 07:15:17;;;;;;;4.62;2.53;;;;;;;2.35;100.00;98841.28;4469286;31;20120;-66
2023/03/28 07:17:46;;;;;;;3.80;2.17;;;;;;;2.31;100.00;98844.03;4469608;31;20116;-67
2023/03/28 07:20:13;;;;;;;4.53;1.67;;;;;;;2.17;100.00;98845.72;4468846;31;20088;-66
2023/03/28 07:22:40;;;;;;;7.68;1.95;;;;;;;2.05;100.00;98852.38;4468518;31;20101;-66
2023/03/28 07:25:08;;;;;;;3.72;1.67;;;;;;;2.02;100.00;98845.59;4473277;31;21386;-66
2023/03/28 07:27:36;;;;;;;3.53;2.15;;;;;;;2.16;100.00;98859.53;4473135;32;20451;-67
2023/03/28 07:30:04;;;;;;;2.03;1.50;;;;;;;2.27;100.00;98852.03;4470475;31;20100;-65
2023/03/28 07:32:31;;;;;;;3.92;1.33;;;;;;;2.20;100.00;98858.47;4472781;31;20172;-66
2023/03/28 07:35:17;;;;;;;2.67;1.98;;;;;;;2.07;100.00;98848.75;4474897;31;20445;-65
2023/03/28 07:37:45;;;;;;;2.65;1.55;;;;;;;2.15;100.00;98863.88;4473393;31;20173;-65
2023/03/28 07:40:15;;;;;;;2.92;1.65;;;;;;;2.07;100.00;98853.09;4470357;31;20137;-66
2023/03/28 07:42:42;;;;;;;3.42;1.60;;;;;;;2.10;100.00;98852.94;4469764;31;20444;-67
2023/03/28 07:45:10;;;;;;;4.28;2.03;;;;;;;1.88;100.00;98861.84;4471665;31;20456;-66
2023/03/28 07:47:38;;;;;;;4.15;2.00;;;;;;;1.92;100.00;98858.19;4468653;31;20511;-65
2023/03/28 07:50:06;;;;;;;5.10;2.20;;;;;;;2.12;100.00;98867.47;4474497;31;20100;-65
2023/03/28 07:52:35;;;;;;;4.65;1.70;;;;;;;2.36;100.00;98850.72;4470666;31;20111;-67
2023/03/28 07:55:03;;;;;;;2.00;1.42;;;;;;;2.53;100.00;98853.22;4470478;31;20108;-67
2023/03/28 07:57:34;;;;;;;3.10;1.80;;;;;;;2.57;100.00;98862.47;4467187;31;20150;-66
2023/03/28 08:00:06;;;;;;;2.92;1.80;;;;;;;2.42;100.00;98856.41;4470041;31;20097;-65
2023/03/28 08:02:40;;;;;;;2.58;1.60;;;;;;;2.46;100.00;98868.22;4469449;31;20088;-65
2023/03/28 08:05:12;;;;;;;3.70;2.10;;;;;;;2.59;100.00;98863.22;4472681;31;20104;-66
2023/03/28 08:07:40;;;;;;;1.95;1.35;;;;;;;2.75;100.00;98857.19;4475216;32;20108;-67
2023/03/28 08:10:09;;;;;;;4.40;1.60;;;;;;;2.67;99.98;98855.88;4468286;31;20089;-66
2023/03/28 08:12:37;;;;;;;2.30;1.40;;;;;;;2.77;100.00;98843.28;4473244;31;20149;-66
2023/03/28 08:15:05;;;;;;;4.82;1.67;;;;;;;2.61;96.29;98848.44;4471057;31;20098;-66
2023/03/28 08:17:33;;;;;;;3.08;1.40;;;;;;;2.53;96.81;98854.97;4470097;31;20127;-67
2023/03/28 08:20:00;;;;;;;1.52;1.08;;;;;;;2.75;93.99;98852.84;4473571;31;20120;-67
2023/03/28 08:22:31;;;;;;;2.83;1.48;;;;;;;2.90;92.30;98843.41;4468846;31;20832;-68
2023/03/28 08:25:00;;;;;;;3.47;1.30;;;;;;;3.28;90.26;98860.25;4469429;32;20096;-67
2023/03/28 08:27:29;;;;;;;1.40;0.90;;;;;;;3.15;89.78;98847.16;4469047;31;20100;-67
2023/03/28 08:29:56;;;;;;;1.65;0.90;;;;;;;3.33;90.55;98853.88;4468395;31;20100;-67
2023/03/28 08:32:25;;;;;;;2.22;1.00;;;;;;;3.19;86.68;98846.06;4471084;31;20172;-67
2023/03/28 08:34:53;;;;;;;1.92;1.00;;;;;;;3.20;89.11;98855.53;4471890;31;20111;-67
2023/03/28 08:37:21;;;;;;;1.27;1.12;;;;;;;3.43;88.67;98848.16;4470386;31;20520;-68
2023/03/28 08:39:48;;;;;;;1.27;0.90;;;;;;;3.60;86.40;98840.22;4466200;31;20145;-67
2023/03/28 08:42:41;;;;;;;3.90;1.30;;;;;;;3.70;86.42;98850.87;4466989;32;20096;-67
2023/03/28 08:45:14;;;;;;;1.58;1.08;;;;;;;4.13;86.11;98834.47;4470826;32;20257;-68
2023/03/28 08:48:01;;;;;;;3.05;1.12;;;;;;;4.36;83.53;98841.69;4469562;32;20101;-67
2023/03/28 08:50:41;;;;;;;2.60;1.10;;;;;;;4.28;83.26;98841.31;4474830;31;20105;-68
2023/03/28 08:53:42;;;;;;;2.42;1.23;;;;;;;4.34;82.31;98835.72;4471064;31;20971;-67
2023/03/28 08:56:13;;;;;;;2.15;1.02;;;;;;;4.85;84.32;98834.31;4417861;32;20093;-68
2023/03/28 08:59:09;;;;;;;1.50;1.00;;;;;;;4.38;83.94;98826.84;4406386;32;20976;-66
2023/03/28 09:01:37;;;;;;;0.85;0.50;;;;;;;4.06;81.26;98828.84;4418583;32;20133;-66
2023/03/28 09:04:05;;;;;;;0.73;0.57;;;;;;;3.51;81.43;98830.41;4421641;32;20132;-67
2023/03/28 09:06:43;;;;;;;4.80;2.53;;;;;;;3.54;81.16;98841.44;4401848;32;20198;-68
2023/03/28 09:09:20;;;;;;;1.27;0.77;;;;;;;3.80;80.92;98852.00;4421023;32;20130;-66
2023/03/28 09:12:21;;;;;;;3.37;1.87;;;;;;;3.83;79.43;98844.03;4427368;32;20194;-66
2023/03/28 09:15:12;;;;;;;2.03;0.90;;;;;;;3.77;80.20;98831.47;4419022;32;20106;-67
2023/03/28 09:18:05;;;;;;;1.75;0.88;;;;;;;3.60;83.37;98854.94;4422469;32;20128;-66
2023/03/28 09:20:48;;;;;;;1.80;1.02;;;;;;;3.75;83.08;98837.66;4374774;32;20145;-67
2023/03/28 09:23:22;;;;;;;1.90;0.77;;;;;;;3.96;81.01;98851.06;4372013;32;20625;-68
2023/03/28 09:25:59;;;;;;;4.60;1.08;;;;;;;4.50;82.14;98853.78;4385570;32;20649;-67
2023/03/28 09:28:37;;;;;;;0.73;0.52;;;;;;;4.20;82.66;98862.53;4381917;32;20283;-67
2023/03/28 09:31:08;;;;;;;1.25;0.60;;;;;;;3.77;83.70;98882.44;4364623;32;20111;-68
2023/03/28 09:33:39;;;;;;;1.62;0.60;;;;;;;3.80;87.57;98887.44;4427280;32;20129;-68
2023/03/28 09:36:19;;;;;;;1.20;0.60;;;;;;;3.51;92.65;98884.81;4432151;32;20182;-68
2023/03/28 09:38:53;;;;;;;1.27;0.90;;;;;;;3.06;100.00;98891.69;4431535;32;20097;-67
2023/03/28 09:41:28;;;;;;;1.45;0.80;;;;;;;3.36;100.00;98891.69;4425934;32;20214;-67
2023/03/28 09:44:00;;;;;;;4.30;1.00;;;;;;;3.29;100.00;98880.87;4419302;32;20170;-67
2023/03/28 09:46:44;;;;;;;3.45;1.10;;;;;;;3.47;100.00;98880.75;4431069;32;20835;-66
2023/03/28 09:49:20;;;;;;;2.12;1.30;;;;;;;3.66;100.00;98876.12;4431171;32;20477;-67
2023/03/28 09:51:51;;;;;;;3.25;1.50;;;;;;;4.05;100.00;98864.28;4427816;32;20476;-67
2023/03/28 09:54:27;;;;;;;6.10;1.65;;;;;;;4.36;99.74;98871.94;4431610;32;20131;-67
2023/03/28 09:57:00;;;;;;;1.90;1.20;;;;;;;4.54;95.30;98862.19;4440024;31;20122;-68
2023/03/28 09:59:34;;;;;;;1.85;0.93;;;;;;;4.76;91.40;98851.28;4469410;32;20116;-67
2023/03/28 10:02:03;;;;;;;2.05;0.88;;;;;;;4.71;90.04;98851.59;4466959;31;20468;-67
2023/03/28 10:04:37;;;;;;;2.60;1.35;;;;;;;4.33;82.70;98838.41;4470402;31;20104;-67
2023/03/28 10:07:09;;;;;;;0.82;0.80;;;;;;;4.57;85.46;98846.44;4477001;32;20111;-67
2023/03/28 10:09:55;;;;;;;1.05;0.75;;;;;;;4.65;80.86;98851.97;4484821;31;20514;-66
2023/03/28 10:12:26;;;;;;;1.10;0.80;;;;;;;4.37;74.92;98840.72;4483819;31;20104;-67
2023/03/28 10:14:53;;;;;;;6.10;0.93;;;;;;;4.66;71.49;98866.59;4481431;31;20100;-66
2023/03/28 10:17:31;;;;;;;1.20;0.65;;;;;;;4.58;71.56;98843.72;4484072;32;20138;-67
2023/03/28 10:20:31;;;;;;;1.87;0.70;;;;;;;4.68;69.83;98841.41;4484149;32;20084;-68
2023/03/28 10:22:58;;;;;;;3.45;0.82;;;;;;;4.52;69.71;98840.72;4475791;31;20112;-67
2023/03/28 10:25:36;;;;;;;1.83;1.10;;;;;;;4.46;65.86;98846.28;4481459;31;20164;-68
2023/03/28 10:28:05;;;;;;;1.27;0.98;;;;;;;4.71;66.96;98859.38;4483194;32;20100;-68
2023/03/28 10:30:35;;;;;;;3.20;0.95;;;;;;;5.04;63.51;98845.16;4481524;32;20111;-66
2023/03/28 10:33:19;;;;;;;0.65;0.50;;;;;;;4.83;63.24;98851.72;4475476;31;20108;-66
2023/03/28 10:35:54;;;;;;;1.15;0.70;;;;;;;4.53;63.05;98858.78;4483363;31;20139;-66
2023/03/28 10:38:23;;;;;;;2.58;0.98;;;;;;;3.89;66.74;98866.16;4475668;31;20088;-66
2023/03/28 10:41:21;;;;;;;3.37;0.90;;;;;;;3.57;82.19;98861.12;4481058;31;20124;-68
2023/03/28 10:43:55;;;;;;;0.93;0.70;;;;;;;3.24;90.59;98858.75;4487483;31;20523;-66
2023/03/28 10:46:29;;;;;;;0.95;0.90;;;;;;;2.84;100.00;98870.44;4479624;31;20101;-66
2023/03/28 10:49:06;;;;;;;2.00;0.80;;;;;;;3.12;100.00;98850.78;4481954;32;20155;-67
2023/03/28 10:51:36;;;;;;;1.10;0.90;;;;;;;3.45;100.00;98860.13;4478357;32;20484;-67
2023/03/28 10:54:23;;;;;;;2.03;1.08;;;;;;;3.91;100.00;98859.13;4476239;32;21209;-65
2023/03/28 10:57:06;;;;;;;1.05;0.75;;;;;;;4.22;98.86;98841.69;4478146;32;20167;-67
2023/03/28 11:00:11;;;;;;;8.20;1.15;;;;;;;4.57;91.30;98846.44;4481971;32;20527;-66
2023/03/28 11:02:58;;;;;;;1.73;0.75;;;;;;;5.09;85.15;98843.06;4429685;32;20114;-66
2023/03/28 11:05:27;;;;;;;0.80;0.77;;;;;;;5.17;74.32;98839.16;4413291;32;20161;-65
2023/03/28 11:08:10;;;;;;;1.60;1.02;;;;;;;5.20;71.34;98824.19;4426767;32;20145;-67
2023/03/28 11:11:03;;;;;;;1.98;1.00;;;;;;;5.75;71.76;98832.63;4428187;32;20127;-67
2023/03/28 11:14:13;;;;;;;0.43;0.43;;;;;;;5.67;68.85;98832.31;4404524;32;20125;-67
2023/03/28 11:16:46;;;;;;;1.52;0.90;;;;;;;5.62;66.28;98837.84;4388162;32;20106;-66
2023/03/28 11:19:32;;;;;;;1.35;0.70;;;;;;;5.56;69.99;98846.06;4387529;32;20674;-67
2023/03/28 11:22:19;;;;;;;2.47;0.60;;;;;;;5.96;65.34;98832.09;4383402;32;20090;-67
2023/03/28 11:24:48;;;;;;;1.05;0.85;;;;;;;5.92;66.29;98835.84;4388262;32;20530;-67
2023/03/28 11:27:28;;;;;;;2.87;0.85;;;;;;;5.66;66.44;98841.91;4386139;32;20547;-67
2023/03/28 11:30:10;;;;;;;0.70;0.60;;;;;;;5.91;64.33;98842.81;4387833;32;20136;-68
2023/03/28 11:32:43;;;;;;;1.30;0.80;;;;;;;5.89;63.96;98852.50;4388938;32;20126;-67
2023/03/28 11:35:12;;;;;;;1.45;0.68;;;;;;;5.51;61.77;98842.91;4389112;32;20445;-67
2023/03/28 11:37:48;;;;;;;2.58;1.27;;;;;;;5.54;62.09;98873.06;4386382;32;20106;-67
2023/03/28 11:40:46;;;;;;;1.35;0.93;;;;;;;5.15;63.41;98862.62;4418557;32;20144;-67
2023/03/28 11:43:20;;;;;;;2.17;1.00;;;;;;;4.68;67.84;98866.50;4414778;32;20904;-66
2023/03/28 11:45:50;;;;;;;;;;;;;;;4.23;76.94;98879.66;4417853;32;20205;-67
2023/03/28 11:49:05;;;;;;;1.05;0.75;;;;;;;4.63;75.96;98882.34;4420650;32;20334;-67
2023/03/28 11:51:44;;;;;;;2.33;1.15;;;;;;;5.24;74.03;98871.56;4366691;32;20174;-67
2023/03/28 11:54:23;;;;;;;2.53;0.90;;;;;;;5.54;72.29;98849.69;4402025;32;20153;-68
2023/03/28 11:57:11;;;;;;;1.35;0.80;;;;;;;5.55;65.16;98864.34;4402208;32;20117;-67
2023/03/28 11:59:59;;;;;;;2.47;1.02;;;;;;;5.10;65.59;98852.53;4402050;32;20199;-67
2023/03/28 12:02:29;;;;;;;1.83;1.00;;;;;;;4.52;61.08;98851.09;4397178;32;20487;-67